sensor_id;sensor_type;location;lat;lon;timestamp;pressure;altitude;pressure_sealevel;temperature;humidity
54262;BME280;40174;52.364;6.452;2022-11-20T00:02:16;101129.66;;;-3.86;100.00
54262;BME280;40174;52.364;6.452;2022-11-20T00:04:42;101123.66;;;-3.86;100.00
54262;BME280;40174;52.364;6.452;2022-11-20T00:07:09;101124.56;;;-3.90;100.00
54262;BME280;40174;52.364;6.452;2022-11-20T00:09:37;101123.78;;;-3.94;100.00
54262;BME280;40174;52.364;6.452;2022-11-20T00:12:04;101125.53;;;-3.98;100.00
54262;BME280;40174;52.364;6.452;2022-11-20T00:14:30;101121.28;;;-3.99;100.00
54262;BME280;40174;52.364;6.452;2022-11-20T00:16:57;101114.38;;;-4.00;100.00
54262;BME280;40174;52.364;6.452;2022-11-20T00:19:24;101110.13;;;-4.02;100.00
54262;BME280;40174;52.364;6.452;2022-11-20T00:21:51;101103.28;;;-4.05;100.00
54262;BME280;40174;52.364;6.452;2022-11-20T00:24:19;101107.63;;;-4.08;100.00
54262;BME280;40174;52.364;6.452;2022-11-20T00:26:47;101108.53;;;-4.09;100.00
54262;BME280;40174;52.364;6.452;2022-11-20T00:29:13;101112.84;;;-4.10;100.00
54262;BME280;40174;52.364;6.452;2022-11-20T00:31:40;101102.53;;;-4.13;100.00
54262;BME280;40174;52.364;6.452;2022-11-20T00:34:06;101108.56;;;-4.12;100.00
54262;BME280;40174;52.364;6.452;2022-11-20T00:36:33;101101.72;;;-4.15;100.00
54262;BME280;40174;52.364;6.452;2022-11-20T00:39:00;101099.16;;;-4.16;100.00
54262;BME280;40174;52.364;6.452;2022-11-20T00:41:28;101095.75;;;-4.20;100.00
54262;BME280;40174;52.364;6.452;2022-11-20T00:43:56;101091.53;;;-4.24;100.00
54262;BME280;40174;52.364;6.452;2022-11-20T00:46:25;101089.84;;;-4.25;100.00
54262;BME280;40174;52.364;6.452;2022-11-20T00:48:52;101075.19;;;-4.25;100.00
54262;BME280;40174;52.364;6.452;2022-11-20T00:51:21;101081.25;;;-4.26;100.00
54262;BME280;40174;52.364;6.452;2022-11-20T00:53:48;101074.38;;;-4.28;100.00
54262;BME280;40174;52.364;6.452;2022-11-20T00:56:15;101081.25;;;-4.26;100.00
54262;BME280;40174;52.364;6.452;2022-11-20T00:58:44;101074.34;;;-4.27;100.00
54262;BME280;40174;52.364;6.452;2022-11-20T01:01:13;101069.22;;;-4.28;100.00
54262;BME280;40174;52.364;6.452;2022-11-20T01:03:42;101072.75;;;-4.34;100.00
54262;BME280;40174;52.364;6.452;2022-11-20T01:06:11;101069.41;;;-4.39;100.00
54262;BME280;40174;52.364;6.452;2022-11-20T01:08:38;101078.03;;;-4.42;100.00
54262;BME280;40174;52.364;6.452;2022-11-20T01:11:07;101075.53;;;-4.48;100.00
54262;BME280;40174;52.364;6.452;2022-11-20T01:13:34;101077.28;;;-4.50;100.00
54262;BME280;40174;52.364;6.452;2022-11-20T01:16:04;101080.72;;;-4.49;100.00
54262;BME280;40174;52.364;6.452;2022-11-20T01:18:33;101084.19;;;-4.50;100.00
54262;BME280;40174;52.364;6.452;2022-11-20T01:21:01;101079.88;;;-4.51;100.00
54262;BME280;40174;52.364;6.452;2022-11-20T01:23:31;101080.78;;;-4.54;100.00
54262;BME280;40174;52.364;6.452;2022-11-20T01:25:59;101081.66;;;-4.55;100.00
54262;BME280;40174;52.364;6.452;2022-11-20T01:28:26;101071.34;;;-4.56;100.00
54262;BME280;40174;52.364;6.452;2022-11-20T01:30:52;101064.47;;;-4.57;100.00
54262;BME280;40174;52.364;6.452;2022-11-20T01:33:19;101070.59;;;-4.63;100.00
54262;BME280;40174;52.364;6.452;2022-11-20T01:35:47;101074.91;;;-4.65;100.00
54262;BME280;40174;52.364;6.452;2022-11-20T01:38:14;101062.06;;;-4.68;100.00
54262;BME280;40174;52.364;6.452;2022-11-20T01:40:41;101063.75;;;-4.66;100.00
54262;BME280;40174;52.364;6.452;2022-11-20T01:43:12;101068.91;;;-4.67;100.00
54262;BME280;40174;52.364;6.452;2022-11-20T01:46:12;101062.06;;;-4.70;100.00
54262;BME280;40174;52.364;6.452;2022-11-20T01:48:44;101069.81;;;-4.68;100.00
54262;BME280;40174;52.364;6.452;2022-11-20T01:51:19;101067.25;;;-4.71;100.00
54262;BME280;40174;52.364;6.452;2022-11-20T01:53:47;101065.56;;;-4.72;100.00
54262;BME280;40174;52.364;6.452;2022-11-20T01:56:15;101066.44;;;-4.75;100.00
54262;BME280;40174;52.364;6.452;2022-11-20T01:58:45;101062.16;;;-4.76;100.00
54262;BME280;40174;52.364;6.452;2022-11-20T02:01:13;101055.25;;;-4.75;100.00
54262;BME280;40174;52.364;6.452;2022-11-20T02:03:41;101053.56;;;-4.75;100.00
54262;BME280;40174;52.364;6.452;2022-11-20T02:06:14;101052.72;;;-4.77;100.00
54262;BME280;40174;52.364;6.452;2022-11-20T02:08:42;101059.63;;;-4.81;100.00
54262;BME280;40174;52.364;6.452;2022-11-20T02:11:09;101057.06;;;-4.82;100.00
54262;BME280;40174;52.364;6.452;2022-11-20T02:13:35;101056.22;;;-4.81;100.00
54262;BME280;40174;52.364;6.452;2022-11-20T02:16:14;101052.81;;;-4.85;100.00
54262;BME280;40174;52.364;6.452;2022-11-20T02:18:41;101047.69;;;-4.88;100.00
54262;BME280;40174;52.364;6.452;2022-11-20T02:21:21;101054.59;;;-4.90;100.00
54262;BME280;40174;52.364;6.452;2022-11-20T02:24:02;101040.88;;;-4.92;100.00
54262;BME280;40174;52.364;6.452;2022-11-20T02:26:31;101040.88;;;-4.93;100.00
54262;BME280;40174;52.364;6.452;2022-11-20T02:29:00;101040.06;;;-4.95;100.00
54262;BME280;40174;52.364;6.452;2022-11-20T02:31:28;101040.09;;;-4.97;100.00
54262;BME280;40174;52.364;6.452;2022-11-20T02:33:55;101032.38;;;-5.00;100.00
54262;BME280;40174;52.364;6.452;2022-11-20T02:43:34;101021.34;;;-5.10;100.00
54262;BME280;40174;52.364;6.452;2022-11-20T02:46:00;101020.50;;;-5.12;100.00
54262;BME280;40174;52.364;6.452;2022-11-20T02:48:27;101025.69;;;-5.13;100.00
54262;BME280;40174;52.364;6.452;2022-11-20T02:50:53;101027.41;;;-5.14;100.00
54262;BME280;40174;52.364;6.452;2022-11-20T02:53:20;101021.44;;;-5.17;100.00
54262;BME280;40174;52.364;6.452;2022-11-20T02:55:46;101023.13;;;-5.16;100.00
54262;BME280;40174;52.364;6.452;2022-11-20T02:58:13;101011.97;;;-5.17;100.00
54262;BME280;40174;52.364;6.452;2022-11-20T03:00:41;101006.84;;;-5.18;100.00
54262;BME280;40174;52.364;6.452;2022-11-20T03:03:07;101012.03;;;-5.20;100.00
54262;BME280;40174;52.364;6.452;2022-11-20T03:05:34;101012.03;;;-5.22;100.00
54262;BME280;40174;52.364;6.452;2022-11-20T03:08:01;101014.66;;;-5.25;100.00
54262;BME280;40174;52.364;6.452;2022-11-20T03:10:27;101025.81;;;-5.24;100.00
54262;BME280;40174;52.364;6.452;2022-11-20T03:12:54;101024.97;;;-5.26;100.00
54262;BME280;40174;52.364;6.452;2022-11-20T03:15:21;101026.72;;;-5.28;100.00
54262;BME280;40174;52.364;6.452;2022-11-20T03:17:53;101017.25;;;-5.28;100.00
54262;BME280;40174;52.364;6.452;2022-11-20T03:20:20;101023.25;;;-5.26;100.00
54262;BME280;40174;52.364;6.452;2022-11-20T03:22:46;101012.94;;;-5.27;100.00
54262;BME280;40174;52.364;6.452;2022-11-20T03:25:13;101008.69;;;-5.28;100.00
54262;BME280;40174;52.364;6.452;2022-11-20T03:27:39;101009.56;;;-5.31;100.00
54262;BME280;40174;52.364;6.452;2022-11-20T03:30:07;101014.75;;;-5.32;100.00
54262;BME280;40174;52.364;6.452;2022-11-20T03:32:34;101013.91;;;-5.36;100.00
54262;BME280;40174;52.364;6.452;2022-11-20T03:35:02;101010.50;;;-5.36;100.00
54262;BME280;40174;52.364;6.452;2022-11-20T03:37:28;101007.91;;;-5.36;100.00
54262;BME280;40174;52.364;6.452;2022-11-20T03:39:55;101019.09;;;-5.37;100.00
54262;BME280;40174;52.364;6.452;2022-11-20T03:42:21;101004.50;;;-5.38;100.00
54262;BME280;40174;52.364;6.452;2022-11-20T03:45:07;100998.50;;;-5.39;100.00
54262;BME280;40174;52.364;6.452;2022-11-20T03:47:33;100997.66;;;-5.38;100.00
54262;BME280;40174;52.364;6.452;2022-11-20T03:50:01;100994.19;;;-5.38;100.00
54262;BME280;40174;52.364;6.452;2022-11-20T03:52:28;101001.97;;;-5.41;100.00
54262;BME280;40174;52.364;6.452;2022-11-20T03:54:54;101002.84;;;-5.43;100.00
54262;BME280;40174;52.364;6.452;2022-11-20T03:57:21;101000.28;;;-5.44;100.00
54262;BME280;40174;52.364;6.452;2022-11-20T03:59:48;100999.44;;;-5.46;100.00
54262;BME280;40174;52.364;6.452;2022-11-20T04:02:15;100994.34;;;-5.49;100.00
54262;BME280;40174;52.364;6.452;2022-11-20T04:04:41;100996.03;;;-5.48;100.00
54262;BME280;40174;52.364;6.452;2022-11-20T04:07:09;100991.72;;;-5.48;100.00
54262;BME280;40174;52.364;6.452;2022-11-20T04:09:36;100983.19;;;-5.51;100.00
54262;BME280;40174;52.364;6.452;2022-11-20T04:12:03;100974.59;;;-5.50;100.00
54262;BME280;40174;52.364;6.452;2022-11-20T04:14:29;100967.75;;;-5.53;100.00
54262;BME280;40174;52.364;6.452;2022-11-20T04:16:56;100972.06;;;-5.55;100.00
54262;BME280;40174;52.364;6.452;2022-11-20T04:19:22;100966.06;;;-5.57;100.00
54262;BME280;40174;52.364;6.452;2022-11-20T04:21:49;100966.13;;;-5.60;100.00
54262;BME280;40174;52.364;6.452;2022-11-20T04:24:17;100961.81;;;-5.61;100.00
54262;BME280;40174;52.364;6.452;2022-11-20T04:26:44;100964.44;;;-5.62;100.00
54262;BME280;40174;52.364;6.452;2022-11-20T04:29:11;100962.72;;;-5.64;100.00
54262;BME280;40174;52.364;6.452;2022-11-20T04:31:37;100962.72;;;-5.65;100.00
54262;BME280;40174;52.364;6.452;2022-11-20T04:34:06;100964.44;;;-5.64;100.00
54262;BME280;40174;52.364;6.452;2022-11-20T04:36:33;100962.75;;;-5.67;100.00
54262;BME280;40174;52.364;6.452;2022-11-20T04:39:01;100961.03;;;-5.65;100.00
54262;BME280;40174;52.364;6.452;2022-11-20T04:41:31;100960.16;;;-5.65;100.00
54262;BME280;40174;52.364;6.452;2022-11-20T04:44:00;100950.69;;;-5.63;100.00
54262;BME280;40174;52.364;6.452;2022-11-20T04:46:29;100958.41;;;-5.63;100.00
54262;BME280;40174;52.364;6.452;2022-11-20T04:48:56;100966.13;;;-5.63;100.00
54262;BME280;40174;52.364;6.452;2022-11-20T04:51:22;100951.56;;;-5.66;100.00
54262;BME280;40174;52.364;6.452;2022-11-20T04:53:49;100960.16;;;-5.65;100.00
54262;BME280;40174;52.364;6.452;2022-11-20T04:56:16;100953.31;;;-5.66;100.00
54262;BME280;40174;52.364;6.452;2022-11-20T04:58:44;100941.31;;;-5.69;100.00
54262;BME280;40174;52.364;6.452;2022-11-20T05:01:12;100939.63;;;-5.71;100.00
54262;BME280;40174;52.364;6.452;2022-11-20T05:03:40;100945.63;;;-5.71;100.00
54262;BME280;40174;52.364;6.452;2022-11-20T05:06:07;100946.53;;;-5.73;100.00
54262;BME280;40174;52.364;6.452;2022-11-20T05:08:34;100947.44;;;-5.77;100.00
54262;BME280;40174;52.364;6.452;2022-11-20T05:11:02;100944.00;;;-5.79;100.00
54262;BME280;40174;52.364;6.452;2022-11-20T05:13:28;100938.03;;;-5.81;100.00
54262;BME280;40174;52.364;6.452;2022-11-20T05:16:01;100948.38;;;-5.85;100.00
54262;BME280;40174;52.364;6.452;2022-11-20T05:18:28;100941.50;;;-5.84;100.00
54262;BME280;40174;52.364;6.452;2022-11-20T05:20:55;100939.75;;;-5.83;100.00
54262;BME280;40174;52.364;6.452;2022-11-20T05:23:22;100934.66;;;-5.88;100.00
54262;BME280;40174;52.364;6.452;2022-11-20T05:25:51;100931.28;;;-5.92;100.00
54262;BME280;40174;52.364;6.452;2022-11-20T05:28:18;100932.16;;;-5.93;100.00
54262;BME280;40174;52.364;6.452;2022-11-20T05:30:44;100929.66;;;-5.97;100.00
54262;BME280;40174;52.364;6.452;2022-11-20T05:33:12;100925.41;;;-6.00;100.00
54262;BME280;40174;52.364;6.452;2022-11-20T05:35:39;100931.44;;;-6.04;100.00
54262;BME280;40174;52.364;6.452;2022-11-20T05:38:06;100926.28;;;-6.06;100.00
54262;BME280;40174;52.364;6.452;2022-11-20T05:40:32;100929.75;;;-6.05;100.00
54262;BME280;40174;52.364;6.452;2022-11-20T05:42:59;100922.03;;;-6.05;100.00
54262;BME280;40174;52.364;6.452;2022-11-20T05:45:25;100929.75;;;-6.05;100.00
54262;BME280;40174;52.364;6.452;2022-11-20T05:47:52;100932.28;;;-6.03;100.00
54262;BME280;40174;52.364;6.452;2022-11-20T05:50:20;100943.47;;;-6.04;100.00
54262;BME280;40174;52.364;6.452;2022-11-20T05:52:47;100943.47;;;-6.04;100.00
54262;BME280;40174;52.364;6.452;2022-11-20T05:55:14;100935.75;;;-6.08;100.00
54262;BME280;40174;52.364;6.452;2022-11-20T05:57:40;100942.66;;;-6.10;100.00
54262;BME280;40174;52.364;6.452;2022-11-20T06:00:08;100940.09;;;-6.11;100.00
54262;BME280;40174;52.364;6.452;2022-11-20T06:02:37;100936.69;;;-6.13;100.00
54262;BME280;40174;52.364;6.452;2022-11-20T06:05:05;100933.28;;;-6.15;100.00
54262;BME280;40174;52.364;6.452;2022-11-20T06:07:33;100930.69;;;-6.15;100.00
54262;BME280;40174;52.364;6.452;2022-11-20T06:09:59;100930.69;;;-6.14;100.00
54262;BME280;40174;52.364;6.452;2022-11-20T06:12:26;100925.53;;;-6.14;100.00
54262;BME280;40174;52.364;6.452;2022-11-20T06:14:52;100921.25;;;-6.15;100.00
54262;BME280;40174;52.364;6.452;2022-11-20T06:17:19;100924.66;;;-6.13;100.00
54262;BME280;40174;52.364;6.452;2022-11-20T06:19:46;100928.13;;;-6.17;100.00
54262;BME280;40174;52.364;6.452;2022-11-20T06:22:12;100923.00;;;-6.18;100.00
54262;BME280;40174;52.364;6.452;2022-11-20T06:24:40;100923.03;;;-6.20;100.00
54262;BME280;40174;52.364;6.452;2022-11-20T06:27:06;100932.47;;;-6.20;100.00
54262;BME280;40174;52.364;6.452;2022-11-20T06:29:33;100929.91;;;-6.22;100.00
54262;BME280;40174;52.364;6.452;2022-11-20T06:32:00;100934.19;;;-6.24;100.00
54262;BME280;40174;52.364;6.452;2022-11-20T06:34:26;100932.50;;;-6.25;100.00
54262;BME280;40174;52.364;6.452;2022-11-20T06:36:53;100939.34;;;-6.25;100.00
54262;BME280;40174;52.364;6.452;2022-11-20T06:39:19;100927.38;;;-6.25;100.00
54262;BME280;40174;52.364;6.452;2022-11-20T06:41:47;100920.44;;;-6.21;100.00
54262;BME280;40174;52.364;6.452;2022-11-20T06:44:14;100935.03;;;-6.20;100.00
54262;BME280;40174;52.364;6.452;2022-11-20T06:46:40;100943.59;;;-6.21;100.00
54262;BME280;40174;52.364;6.452;2022-11-20T06:49:07;100945.38;;;-6.25;100.00
54262;BME280;40174;52.364;6.452;2022-11-20T06:51:33;100948.81;;;-6.26;100.00
54262;BME280;40174;52.364;6.452;2022-11-20T06:54:00;100948.81;;;-6.26;100.00
54262;BME280;40174;52.364;6.452;2022-11-20T06:56:27;100950.53;;;-6.25;100.00
54262;BME280;40174;52.364;6.452;2022-11-20T06:58:55;100947.91;;;-6.22;100.00
54262;BME280;40174;52.364;6.452;2022-11-20T07:01:21;100942.78;;;-6.23;100.00
54262;BME280;40174;52.364;6.452;2022-11-20T07:03:48;100944.53;;;-6.27;100.00
54262;BME280;40174;52.364;6.452;2022-11-20T07:06:16;100946.22;;;-6.26;100.00
54262;BME280;40174;52.364;6.452;2022-11-20T07:08:42;100938.53;;;-6.28;100.00
54262;BME280;40174;52.364;6.452;2022-11-20T07:11:11;100954.81;;;-6.27;100.00
54262;BME280;40174;52.364;6.452;2022-11-20T07:13:38;100943.66;;;-6.26;100.00
54262;BME280;40174;52.364;6.452;2022-11-20T07:16:07;100955.72;;;-6.30;100.00
54262;BME280;40174;52.364;6.452;2022-11-20T07:18:34;100950.53;;;-6.27;100.00
54262;BME280;40174;52.364;6.452;2022-11-20T07:21:01;100952.22;;;-6.24;100.00
54262;BME280;40174;52.364;6.452;2022-11-20T07:23:28;100950.50;;;-6.23;100.00
54262;BME280;40174;52.364;6.452;2022-11-20T07:25:54;100951.38;;;-6.23;100.00
54262;BME280;40174;52.364;6.452;2022-11-20T07:28:21;100944.50;;;-6.24;100.00
54262;BME280;40174;52.364;6.452;2022-11-20T07:30:50;100944.50;;;-6.22;100.00
54262;BME280;40174;52.364;6.452;2022-11-20T07:33:18;100952.22;;;-6.21;100.00
54262;BME280;40174;52.364;6.452;2022-11-20T07:35:45;100946.19;;;-6.21;100.00
54262;BME280;40174;52.364;6.452;2022-11-20T07:38:12;100941.88;;;-6.18;100.00
54262;BME280;40174;52.364;6.452;2022-11-20T07:40:38;100946.97;;;-6.15;100.00
54262;BME280;40174;52.364;6.452;2022-11-20T07:43:05;100940.09;;;-6.13;100.00
54262;BME280;40174;52.364;6.452;2022-11-20T07:45:31;100934.06;;;-6.09;100.00
54262;BME280;40174;52.364;6.452;2022-11-20T07:47:58;100934.91;;;-6.08;100.00
54262;BME280;40174;52.364;6.452;2022-11-20T07:50:26;100934.06;;;-6.07;100.00
54262;BME280;40174;52.364;6.452;2022-11-20T07:53:00;100931.44;;;-6.06;100.00
54262;BME280;40174;52.364;6.452;2022-11-20T07:55:26;100919.44;;;-6.05;100.00
54262;BME280;40174;52.364;6.452;2022-11-20T07:57:54;100926.25;;;-6.01;100.00
54262;BME280;40174;52.364;6.452;2022-11-20T08:00:21;100927.09;;;-5.99;100.00
54262;BME280;40174;52.364;6.452;2022-11-20T08:02:48;100929.66;;;-5.96;100.00
54262;BME280;40174;52.364;6.452;2022-11-20T08:05:14;100935.59;;;-5.94;100.00
54262;BME280;40174;52.364;6.452;2022-11-20T08:07:43;100938.13;;;-5.92;100.00
54262;BME280;40174;52.364;6.452;2022-11-20T08:10:11;100925.25;;;-5.91;100.00
54262;BME280;40174;52.364;6.452;2022-11-20T08:12:44;100923.53;;;-5.87;100.00
54262;BME280;40174;52.364;6.452;2022-11-20T08:15:28;100920.78;;;-5.73;100.00
54262;BME280;40174;52.364;6.452;2022-11-20T08:17:59;100928.50;;;-5.75;100.00
54262;BME280;40174;52.364;6.452;2022-11-20T08:20:26;100919.94;;;-5.74;100.00
54262;BME280;40174;52.364;6.452;2022-11-20T08:22:58;100931.91;;;-5.71;100.00
54262;BME280;40174;52.364;6.452;2022-11-20T08:25:26;100912.13;;;-5.68;100.00
54262;BME280;40174;52.364;6.452;2022-11-20T08:27:52;100918.09;;;-5.64;100.00
54262;BME280;40174;52.364;6.452;2022-11-20T08:30:19;100912.00;;;-5.58;100.00
54262;BME280;40174;52.364;6.452;2022-11-20T08:32:45;100913.66;;;-5.54;100.00
54262;BME280;40174;52.364;6.452;2022-11-20T08:35:12;100916.22;;;-5.51;100.00
54262;BME280;40174;52.364;6.452;2022-11-20T08:37:39;100911.00;;;-5.47;100.00
54262;BME280;40174;52.364;6.452;2022-11-20T08:40:10;100913.47;;;-5.40;100.00
54262;BME280;40174;52.364;6.452;2022-11-20T08:42:37;100910.03;;;-5.38;100.00
54262;BME280;40174;52.364;6.452;2022-11-20T08:45:04;100899.75;;;-5.38;100.00
54262;BME280;40174;52.364;6.452;2022-11-20T08:47:31;100904.00;;;-5.35;100.00
54262;BME280;40174;52.364;6.452;2022-11-20T08:49:57;100901.38;;;-5.32;100.00
54262;BME280;40174;52.364;6.452;2022-11-20T08:52:24;100903.88;;;-5.26;100.00
54262;BME280;40174;52.364;6.452;2022-11-20T08:54:50;100896.94;;;-5.23;100.00
54262;BME280;40174;52.364;6.452;2022-11-20T08:57:18;100887.50;;;-5.22;100.00
54262;BME280;40174;52.364;6.452;2022-11-20T08:59:45;100887.44;;;-5.20;100.00
54262;BME280;40174;52.364;6.452;2022-11-20T09:02:11;100886.44;;;-5.09;100.00
54262;BME280;40174;52.364;6.452;2022-11-20T09:04:38;100876.06;;;-5.06;100.00
54262;BME280;40174;52.364;6.452;2022-11-20T09:07:04;100864.84;;;-5.02;100.00
54262;BME280;40174;52.364;6.452;2022-11-20T09:09:31;100862.22;;;-4.98;100.00
54262;BME280;40174;52.364;6.452;2022-11-20T09:11:58;100854.38;;;-4.92;100.00
54262;BME280;40174;52.364;6.452;2022-11-20T09:14:26;100867.97;;;-4.83;100.00
54262;BME280;40174;52.364;6.452;2022-11-20T09:16:55;100870.22;;;-4.64;100.00
54262;BME280;40174;52.364;6.452;2022-11-20T09:19:23;100862.50;;;-4.64;100.00
54262;BME280;40174;52.364;6.452;2022-11-20T09:21:50;100856.41;;;-4.58;100.00
54262;BME280;40174;52.364;6.452;2022-11-20T09:24:17;100856.97;;;-4.43;100.00
54262;BME280;40174;52.364;6.452;2022-11-20T09:26:44;100861.03;;;-4.28;100.00
54262;BME280;40174;52.364;6.452;2022-11-20T09:29:10;100857.41;;;-4.19;100.00
54262;BME280;40174;52.364;6.452;2022-11-20T09:31:38;100853.63;;;-4.01;100.00
54262;BME280;40174;52.364;6.452;2022-11-20T09:34:05;100851.53;;;-3.84;100.00
54262;BME280;40174;52.364;6.452;2022-11-20T09:36:31;100849.66;;;-3.76;100.00
54262;BME280;40174;52.364;6.452;2022-11-20T09:38:58;100845.97;;;-3.64;100.00
54262;BME280;40174;52.364;6.452;2022-11-20T09:41:41;100848.53;;;-3.62;100.00
54262;BME280;40174;52.364;6.452;2022-11-20T09:44:23;100854.63;;;-3.27;100.00
54262;BME280;40174;52.364;6.452;2022-11-20T09:46:58;100849.38;;;-3.23;100.00
54262;BME280;40174;52.364;6.452;2022-11-20T09:49:32;100849.31;;;-3.20;100.00
54262;BME280;40174;52.364;6.452;2022-11-20T09:52:12;100842.81;;;-3.00;100.00
54262;BME280;40174;52.364;6.452;2022-11-20T09:54:44;100849.19;;;-2.79;100.00
54262;BME280;40174;52.364;6.452;2022-11-20T09:57:14;100857.78;;;-2.77;100.00
54262;BME280;40174;52.364;6.452;2022-11-20T09:59:44;100852.28;;;-2.65;100.00
54262;BME280;40174;52.364;6.452;2022-11-20T10:02:20;100844.38;;;-2.59;100.00
54262;BME280;40174;52.364;6.452;2022-11-20T10:04:55;100850.81;;;-2.41;100.00
54262;BME280;40174;52.364;6.452;2022-11-20T10:07:28;100844.50;;;-2.31;100.00
54262;BME280;40174;52.364;6.452;2022-11-20T10:09:56;100849.34;;;-2.18;100.00
54262;BME280;40174;52.364;6.452;2022-11-20T10:12:31;100841.56;;;-2.18;100.00
54262;BME280;40174;52.364;6.452;2022-11-20T10:15:10;100834.97;;;-1.97;100.00
54262;BME280;40174;52.364;6.452;2022-11-20T10:17:54;100820.97;;;-1.92;100.00
54262;BME280;40174;52.364;6.452;2022-11-20T10:20:29;100821.59;;;-1.83;100.00
54262;BME280;40174;52.364;6.452;2022-11-20T10:23:23;100826.34;;;-1.68;100.00
54262;BME280;40174;52.364;6.452;2022-11-20T10:25:58;100816.22;;;-1.48;100.00
54262;BME280;40174;52.364;6.452;2022-11-20T10:28:47;100818.72;;;-1.44;100.00
54262;BME280;40174;52.364;6.452;2022-11-20T10:31:27;100812.66;;;-1.43;100.00
54262;BME280;40174;52.364;6.452;2022-11-20T10:33:57;100821.19;;;-1.41;100.00
54262;BME280;40174;52.364;6.452;2022-11-20T10:36:28;100813.50;;;-1.43;100.00
54262;BME280;40174;52.364;6.452;2022-11-20T10:39:00;100812.50;;;-1.39;100.00
54262;BME280;40174;52.364;6.452;2022-11-20T10:41:32;100804.47;;;-1.31;100.00
54262;BME280;40174;52.364;6.452;2022-11-20T10:44:03;100810.56;;;-1.32;100.00
54262;BME280;40174;52.364;6.452;2022-11-20T10:46:37;100808.84;;;-1.33;100.00
54262;BME280;40174;52.364;6.452;2022-11-20T10:49:12;100800.22;;;-1.34;100.00
54262;BME280;40174;52.364;6.452;2022-11-20T10:51:47;100804.38;;;-1.28;100.00
54262;BME280;40174;52.364;6.452;2022-11-20T10:54:22;100804.31;;;-1.27;100.00
54262;BME280;40174;52.364;6.452;2022-11-20T10:56:52;100800.78;;;-1.24;100.00
54262;BME280;40174;52.364;6.452;2022-11-20T10:59:52;100793.81;;;-1.22;100.00
54262;BME280;40174;52.364;6.452;2022-11-20T11:02:23;100787.78;;;-1.22;100.00
54262;BME280;40174;52.364;6.452;2022-11-20T11:04:52;100794.59;;;-1.20;100.00
54262;BME280;40174;52.364;6.452;2022-11-20T11:07:22;100787.38;;;-1.10;100.00
54262;BME280;40174;52.364;6.452;2022-11-20T11:09:52;100796.88;;;-1.09;100.00
54262;BME280;40174;52.364;6.452;2022-11-20T11:12:20;100794.16;;;-1.06;100.00
54262;BME280;40174;52.364;6.452;2022-11-20T11:14:48;100791.41;;;-1.01;100.00
54262;BME280;40174;52.364;6.452;2022-11-20T11:17:27;100796.50;;;-0.98;100.00
54262;BME280;40174;52.364;6.452;2022-11-20T11:20:05;100791.16;;;-0.94;100.00
54262;BME280;40174;52.364;6.452;2022-11-20T11:22:33;100783.13;;;-0.86;100.00
54262;BME280;40174;52.364;6.452;2022-11-20T11:25:01;100776.78;;;-0.77;100.00
54262;BME280;40174;52.364;6.452;2022-11-20T11:27:27;100775.56;;;-0.67;100.00
54262;BME280;40174;52.364;6.452;2022-11-20T11:30:13;100778.41;;;-0.50;100.00
54262;BME280;40174;52.364;6.452;2022-11-20T11:32:40;100774.13;;;-0.27;100.00
54262;BME280;40174;52.364;6.452;2022-11-20T11:35:20;100749.19;;;-0.08;100.00
54262;BME280;40174;52.364;6.452;2022-11-20T11:37:47;100748.56;;;0.09;100.00
54262;BME280;40174;52.364;6.452;2022-11-20T11:40:15;100745.06;;;0.32;100.00
54262;BME280;40174;52.364;6.452;2022-11-20T11:42:42;100747.59;;;0.56;100.00
54262;BME280;40174;52.364;6.452;2022-11-20T11:45:14;100742.56;;;0.73;100.00
54262;BME280;40174;52.364;6.452;2022-11-20T11:47:45;100739.28;;;0.90;100.00
54262;BME280;40174;52.364;6.452;2022-11-20T11:50:19;100735.25;;;1.03;100.00
54262;BME280;40174;52.364;6.452;2022-11-20T11:52:56;100741.69;;;1.15;100.00
54262;BME280;40174;52.364;6.452;2022-11-20T11:55:29;100741.63;;;1.37;100.00
54262;BME280;40174;52.364;6.452;2022-11-20T11:58:06;100740.59;;;1.41;100.00
54262;BME280;40174;52.364;6.452;2022-11-20T12:00:37;100734.06;;;1.31;100.00
54262;BME280;40174;52.364;6.452;2022-11-20T12:03:12;100715.84;;;1.11;100.00
54262;BME280;40174;52.364;6.452;2022-11-20T12:05:43;100722.44;;;0.99;100.00
54262;BME280;40174;52.364;6.452;2022-11-20T12:08:16;100720.97;;;0.92;100.00
54262;BME280;40174;52.364;6.452;2022-11-20T12:10:50;100720.59;;;0.80;100.00
54262;BME280;40174;52.364;6.452;2022-11-20T12:13:34;100709.38;;;0.78;100.00
54262;BME280;40174;52.364;6.452;2022-11-20T12:16:03;100716.44;;;0.76;100.00
54262;BME280;40174;52.364;6.452;2022-11-20T12:18:30;100715.75;;;0.71;100.00
54262;BME280;40174;52.364;6.452;2022-11-20T12:21:07;100713.34;;;0.67;100.00
54262;BME280;40174;52.364;6.452;2022-11-20T12:23:46;100711.78;;;0.62;100.00
54262;BME280;40174;52.364;6.452;2022-11-20T12:26:19;100702.44;;;0.58;100.00
54262;BME280;40174;52.364;6.452;2022-11-20T12:29:01;100702.44;;;0.58;100.00
54262;BME280;40174;52.364;6.452;2022-11-20T12:31:56;100698.19;;;0.56;100.00
54262;BME280;40174;52.364;6.452;2022-11-20T12:34:45;100686.97;;;0.54;100.00
54262;BME280;40174;52.364;6.452;2022-11-20T12:37:24;100683.53;;;0.53;100.00
54262;BME280;40174;52.364;6.452;2022-11-20T12:39:58;100683.50;;;0.55;100.00
54262;BME280;40174;52.364;6.452;2022-11-20T12:42:37;100681.69;;;0.57;100.00
54262;BME280;40174;52.364;6.452;2022-11-20T12:45:42;100671.38;;;0.54;100.00
54262;BME280;40174;52.364;6.452;2022-11-20T12:51:35;100650.56;;;0.54;100.00
54262;BME280;40174;52.364;6.452;2022-11-20T12:54:20;100647.91;;;0.55;100.00
54262;BME280;40174;52.364;6.452;2022-11-20T12:56:56;100637.56;;;0.54;100.00
54262;BME280;40174;52.364;6.452;2022-11-20T12:59:36;100634.97;;;0.54;100.00
54262;BME280;40174;52.364;6.452;2022-11-20T13:02:18;100626.22;;;0.56;100.00
54262;BME280;40174;52.364;6.452;2022-11-20T13:05:11;100625.34;;;0.56;100.00